SLRI/RIB METAR and TAF weather

Enter ICAO airport designator
Station Type Date Time Source
SLRI METAR 2019/04/25 16:00 UTC NOAA

SLRI 251600Z 00000KT 9999 SCT017 31/25 Q1015


Station Type Date Time Source
SLRI Decoded METAR 2019/04/25 16:00 UTC NOAA

Riberalta, Bolivia (SLRI) 11-00S 066-07W
Apr 25, 2019 - 12:00 PM EDT / 2019.04.25 1600 UTC
Wind: Calm:0
Visibility: greater than 7 mile(s):0
Sky conditions: partly cloudy
Temperature: 87 F (31 C)
Heat index: 97.5 F (36.4 C):1
Dew Point: 77 F (25 C)
Relative Humidity: 70%
Pressure (altimeter): 29.97 in. Hg (1015 hPa)
ob: SLRI 251600Z 00000KT 9999 SCT017 31/25 Q1015
cycle: 16

Station Type Date Time Source
SLRI TAF 2015/11/18 00:29 UTC NOAA

TAF SLRI 182200Z 1900/1924 00000KT 9999 FEW015 TX37/1919Z TN23/1910Z
BECMG 1912/1914 33011KT SCT020
TEMPO 1919/1922 8000 VCSH FEW020 FEW023CB BKN080

Example: see airport list